Terminal Aerodrome Forecast
Issued by NWS

Home | Current Version | Previous Version | Text Only | Print | Product List | Glossary On
Versions: 1 2 3 4 5 6 7 8 9 10 11 12 13 14 15 16 17 18 19 20 21 22 23 24 25
000
FTUS43 KDLH 252100 AAA
TAFHYR
TAF AMD
KHYR 252107Z 2521/2618 06006KT P6SM SCT020 OVC100
     FM260000 18006KT P6SM BKN050
     FM260700 20007KT 3SM -SN OVC020
     FM261200 22010KT 2SM -SN BR OVC015=

USA.gov is the U.S. government's official web portal to all federal, state and local government web resources and services.